My Meet Scores
Allison Herward, Phenom Gymnastics - MyMeetScores.com
Top100 | Top Teams | Upcoming Meets | Completed Meets | Latest | Add Scores | Help| Support | Bookmark and Share

Allison Herward, Phenom Gymnastics
Personal Bests
LevelVault BarsBeamFloorAA
39.6009.750 9.5759.72538.375
49.4509.750 9.7759.67538.325
59.7509.350 9.6009.27537.975
Scores on America's Top 100as of 02.21.2020
Year Level Vault Bars Beam Floor AA
2020 59.7509.60037.975

Click here to view our exclusive Top 100 Collection
Meet Scores
Date Meet Team Session Level Division Vault Bars Beam Floor AA
2020-02-14 Big Classic Phenom Gymnastics 1A 5 Child A 9.750 5 9.350 10T 9.600 2 9.275 8 37.975 2
2020-01-31 Big Chill Phenom Gymnastics 4 5 8 & 9 9.500 2T 9.350 2 9.400 1 9.275 3 37.525 1
2019-03-22 Illinois Gymnastics State Championships GymNasti 9 4 Ch D 9.350 1 9.750 1 9.775 1 9.450 1 38.325 1
2019-02-15 Women's Midwest Open GymNasti 15 4 Junior A 9.450 1 9.250 3 9.600 1 9.675 2 37.975 1
2019-02-08 IGI Chicago Style 2019 GymNasti 44 4 232 Lakeshore L4 A 9.375 2 9.450 3 9.525 4 8.850 7 37.200 3
2019-01-25 King Arthur Invitational GymNasti 11 4 JR A 9.075 4 9.325 3 9.450 2T 9.375 1 37.225 2
2019-01-11 St Jude Benefit Meet GymNasti 4A 4 Jr A 8.950 3T 8.875 3 9.225 2 9.350 2 36.400 2
2018-12-07 St. Nick Invite 2018 GymNasti 5A 4 JrA 9.025 4 9.600 3 9.375 1 9.375 2 37.375 2
2018-05-03 Illinois USA Gymnastics Level 3 State Championships GymNasti 7 3 Ch D 9.425 16T 9.550 2 9.475 2 9.475 6 37.925 3
2018-02-23 Kinetic Classic GymNasti 4 3 Younger 9.050 35T 9.400 15T 9.450 13T 9.725 1 37.625 7
2018-02-17 Women's Midwest Open GymNasti 10 3 Jr A 9.600 1 9.525 1 9.425 1 9.700 1 38.250 1
2018-01-26 King Arthur Invitational GymNasti 5 3 JRA 9.450 7 9.500 3 9.350 4T 9.425 2 37.725 2
2018-01-12 St Jude Benefit Meet GymNasti 4A 3 JrA 8.825 10T 9.575 1 9.425 1 9.425 1 37.250 1
2017-12-08 St. Nick Invite GymNasti 6A 3 JrA 9.475 1 9.750 1 9.575 1 9.575 1 38.375 1
2017-03-30 2017 Illinois Level 3 & 5 State GymNasti All 3 Ch A 8.850 23T 9.200 17T 9.175 6 8.950 15T 36.175 16
2017-02-17 Midwest Open GymNasti 1A 3 JR A 8.600 15 8.550 6 9.200 3 9.150 4T 35.500 4
2017-02-10 IGI Chicago Style Gymnastics Meet GymNasti 212L 3 JrA 8.600 16 8.700 11 9.100 6 9.225 8 35.625 10
2017-01-20 2017 Bravo Classic GymNasti 10B 3 6-7yrs 8.800 19T 9.000 12T 9.200 6 8.525 15T 35.525 11
2017-01-13 St Jude Benefit Meet GymNasti 7A 3 Jr A 8.375 16 9.075 7T 8.500 5 9.100 5 35.050 8
2016-12-09 St. Nick Invite GymNasti 5 3 All 9.000 54T 8.750 44T 8.900 44T 8.650 57T 35.300 47
Get your scores on
a t-shirt, pin, or hoodie

www.lazysuits.com